Latest Coastal Weather Observations for Bairnsdale

IDV60701

Issued at 5:42 am EST Tuesday 26 June 2018 (issued every 10 minutes, with the page automatically refreshed every 10 minutes)

About coastal observations | Map of coastal stations | Coastal observations for VIC | Marine services | Other Formats
Station Details ID: 085279 Name: BAIRNSDALE AIRPORT Lat: -37.88 Lon: 147.57 Height: 49.4 m
Data from the previous 72 hours. | See also: Recent months at Bairnsdale
Date/Time
EST
Temp
°C
Wind Pressure Rain since
9am
mm
Weather Cloud Vis
km
Sea
Height
m
Swell
Dir  Spd
kts
Gust
kts
hPa Trend Height
m
Period
s
Dir
26/05:30am 1.5 NW 5 5 1032.9 - 0.0 - Clear 10 - - - -
26/05:00am 1.6 NNW 5 6 1032.8 - 0.0 - - 10 - - - -
26/04:30am 1.8 NNW 4 4 1032.7 - 0.0 - - 10 - - - -
26/04:00am 2.6 N 5 6 1032.8 - 0.0 - - 10 - - - -
26/03:30am 3.5 NNW 5 7 1032.8 - 0.0 - - 10 - - - -
26/03:00am 4.1 NW 6 7 1032.7 - 0.0 - - 10 - - - -
26/02:30am 4.9 NW 7 9 1033.0 - 0.0 - - 10 - - - -
26/02:00am 4.9 WNW 7 9 1032.9 - 0.0 - Partly cloudy 10 - - - -
26/01:30am 5.8 NW 7 8 1032.9 - 0.0 - Cloudy 10 - - - -
26/01:00am 6.0 NW 7 8 1032.9 - 0.0 - Cloudy 10 - - - -
26/12:30am 5.8 WNW 7 8 1032.9 - 0.0 - Partly cloudy 10 - - - -
26/12:00am 5.7 NW 7 8 1032.9 - 0.0 - Mostly cloudy 10 - - - -
 
Date/Time
EST
Temp
°C
Wind Pressure Rain since
9am
mm
Weather Cloud Vis
km
Sea
Height
m
Swell
Dir  Spd
kts
Gust
kts
hPa Trend Height
m
Period
s
Dir
25/11:30pm 5.6 WNW 7 9 1032.9 - 0.0 - Cloudy 10 - - - -
25/11:00pm 5.8 NW 8 10 1032.8 - 0.0 - Partly cloudy 10 - - - -
25/10:30pm 6.0 NW 8 10 1032.7 - 0.0 - Partly cloudy 10 - - - -
25/10:00pm 5.9 WNW 7 8 1032.7 - 0.0 - Partly cloudy 10 - - - -
25/09:30pm 6.1 NW 7 8 1032.8 - 0.0 - Partly cloudy 10 - - - -
25/09:00pm 5.1 NW 6 8 1032.6 - 0.0 - Partly cloudy 10 - - - -
25/08:30pm 5.6 NW 6 8 1032.4 - 0.0 - Partly cloudy 10 - - - -
25/08:00pm 5.2 NW 5 8 1032.2 - 0.0 - - 10 - - - -
25/07:30pm 5.5 NW 4 5 1032.1 - 0.0 - - 10 - - - -
25/07:00pm 5.8 W 3 4 1031.8 - 0.0 - - 10 - - - -
25/06:30pm 6.6 WSW 4 5 1031.7 - 0.0 - - 10 - - - -
25/06:00pm 6.9 WSW 4 5 1031.4 - 0.0 - - 10 - - - -
25/05:30pm 8.2 WSW 3 4 1031.1 - 0.0 - Partly cloudy 10 - - - -
25/05:00pm 10.7 WSW 3 4 1030.8 - 0.0 - - 10 - - - -
25/04:30pm 11.8 W 5 7 1030.6 - 0.0 - - - - - - -
25/04:00pm 13.1 W 7 9 1030.7 - 0.0 - Partly cloudy - - - - -
25/03:30pm 13.5 WNW 6 8 1030.5 - 0.0 - - - - - - -
25/03:00pm 13.8 W 7 10 1030.4 - 0.0 - Partly cloudy - - - - -
25/02:30pm 14.3 WNW 6 8 1030.2 - 0.0 - Partly cloudy - - - - -
25/02:00pm 13.3 W 7 15 1030.2 - 0.0 - Partly cloudy - - - - -
25/01:30pm 14.0 W 8 11 1030.5 - 0.0 - Partly cloudy - - - - -
25/01:00pm 13.2 W 10 13 1030.8 - 0.0 - Partly cloudy - - - - -
25/12:30pm 13.4 W 8 12 1031.3 - 0.0 - - - - - - -
25/12:00pm 12.6 W 10 12 1031.6 - 0.0 - Partly cloudy - - - - -
25/11:30am 12.5 W 10 13 1031.9 - 0.0 - Cloudy - - - - -
25/11:00am 12.1 W 10 15 1032.1 - 0.0 - Partly cloudy - - - - -
25/10:30am 11.7 WNW 9 12 1032.1 - 0.0 - Partly cloudy - - - - -
25/10:00am 10.0 NW 9 12 1032.1 - 0.0 - Partly cloudy 10 - - - -
25/09:30am 9.5 NW 7 10 1032.1 - 0.0 - Cloudy 10 - - - -
25/09:00am 8.7 WNW 6 8 1031.9 - 0.0 - Cloudy 10 - - - -
25/08:30am 8.2 NW 6 8 1031.7 - 0.0 - Cloudy 10 - - - -
25/08:00am 7.8 NW 5 6 1031.5 - 0.0 - Cloudy 10 - - - -
25/07:30am 7.8 W 5 7 1031.2 - 0.0 - Partly cloudy 10 - - - -
25/07:00am 8.0 WNW 6 8 1030.8 - 0.0 - Partly cloudy 10 - - - -
25/06:30am 7.9 WNW 5 7 1030.4 - 0.0 - Cloudy 10 - - - -
25/06:00am 7.8 NW 6 7 1030.1 - 0.0 - Cloudy 10 - - - -
25/05:30am 8.0 WNW 6 7 1029.9 - 0.0 - Partly cloudy 10 - - - -
25/05:00am 8.1 WNW 6 7 1029.7 - 0.0 - Partly cloudy 10 - - - -
25/04:30am 8.1 W 6 7 1029.7 - 0.0 - Cloudy 10 - - - -
25/04:00am 7.9 WNW 6 7 1029.5 - 0.0 - Cloudy 10 - - - -
25/03:30am 7.8 NW 6 8 1029.4 - 0.0 - Cloudy 10 - - - -
25/03:00am 7.7 WNW 6 7 1029.6 - 0.0 - Cloudy 10 - - - -
25/02:30am 7.6 WNW 6 8 1029.7 - 0.0 - Partly cloudy 10 - - - -
25/02:00am 8.4 W 7 8 1029.7 - 0.0 - Partly cloudy 10 - - - -
25/01:30am 8.5 W 7 9 1029.6 - 0.0 - Cloudy 10 - - - -
25/01:00am 8.7 WNW 7 9 1029.7 - 0.0 - Cloudy 10 - - - -
25/12:30am 8.2 WNW 7 9 1030.0 - 0.0 - Partly cloudy 10 - - - -
25/12:00am 7.6 WNW 6 7 1030.2 - 0.0 - - 10 - - - -
 
Date/Time
EST
Temp
°C
Wind Pressure Rain since
9am
mm
Weather Cloud Vis
km
Sea
Height
m
Swell
Dir  Spd
kts
Gust
kts
hPa Trend Height
m
Period
s
Dir
24/11:30pm 8.2 W 6 7 1030.2 - 0.0 - Partly cloudy 10 - - - -
24/11:00pm 9.3 W 7 8 1030.2 - 0.0 - Cloudy - - - - -
24/10:30pm 9.3 W 6 7 1030.2 - 0.0 - Cloudy - - - - -
24/10:00pm 9.5 WNW 5 7 1030.2 - 0.0 - Cloudy - - - - -
24/09:30pm 9.5 WNW 5 7 1030.2 - 0.0 - Cloudy - - - - -
24/09:00pm 9.7 WNW 6 8 1030.1 - 0.0 - Cloudy - - - - -
24/08:30pm 9.7 WNW 6 8 1030.0 - 0.0 - Cloudy - - - - -
24/08:00pm 10.1 WNW 6 9 1030.0 - 0.0 - Cloudy - - - - -
24/07:30pm 10.3 W 7 11 1029.8 - 0.0 - Partly cloudy - - - - -
24/07:00pm 10.5 W 9 13 1029.4 - 0.0 - Cloudy - - - - -
24/06:30pm 10.8 WSW 9 13 1029.2 - 0.0 - Cloudy - - - - -
24/06:00pm 10.8 WNW 8 12 1028.8 - 0.0 - Cloudy - - - - -
24/05:30pm 11.1 W 10 13 1028.7 - 0.0 - Cloudy - - - - -
24/05:00pm 11.5 W 11 14 1028.5 - 0.0 - Cloudy - - - - -
24/04:30pm 11.6 W 9 15 1028.3 - 0.0 - Partly cloudy - - - - -
24/04:00pm 11.8 W 10 13 1028.2 - 0.0 - Cloudy - - - - -
24/03:30pm 12.1 W 9 12 1028.1 - 0.0 - Cloudy - - - - -
24/03:00pm 12.3 W 11 15 1028.1 - 0.0 - Cloudy - - - - -
24/02:30pm 12.1 W 11 13 1028.1 - 0.0 - Partly cloudy - - - - -
24/02:00pm 11.9 W 11 16 1028.4 - 0.0 - Cloudy - - - - -
24/01:30pm 12.4 W 13 16 1028.5 - 0.0 - Cloudy - - - - -
24/01:00pm 12.0 W 12 17 1029.1 - 0.0 - Cloudy - - - - -
24/12:30pm 12.0 W 13 17 1029.4 - 0.0 - Cloudy - - - - -
24/12:00pm 12.0 W 12 16 1029.6 - 0.0 - Mostly cloudy - - - - -
24/11:30am 11.3 NW 9 12 1029.8 - 0.0 - Partly cloudy - - - - -
24/11:00am 11.0 NW 12 16 1029.8 - 0.0 - Cloudy - - - - -
24/10:30am 10.3 NW 10 13 1030.0 - 0.0 - Cloudy 10 - - - -
24/10:00am 9.9 NW 9 11 1029.9 - 0.0 - Cloudy 10 - - - -
24/09:30am 9.4 WNW 11 13 1029.7 - 0.0 - Cloudy 10 - - - -
24/09:00am 8.8 NW 9 11 1029.5 - 0.0 - Cloudy 10 - - - -
24/08:30am 8.2 NW 8 10 1029.5 - 0.0 - Cloudy 10 - - - -
24/08:00am 7.9 NW 8 11 1029.3 - 0.0 - Cloudy 10 - - - -
24/07:30am 7.7 NW 8 11 1029.0 - 0.0 - Cloudy 10 - - - -
24/07:00am 7.8 NW 7 10 1028.8 - 0.0 - Cloudy 10 - - - -
24/06:30am 8.2 WNW 8 9 1028.6 - 0.0 - Cloudy 10 - - - -
24/06:00am 8.0 WNW 7 9 1028.4 - 0.0 - Cloudy 10 - - - -
24/05:30am 8.1 WNW 9 11 1028.1 - 0.0 - Cloudy 10 - - - -
24/05:00am 8.5 WNW 9 13 1027.9 - 0.0 - Cloudy 10 - - - -
24/04:30am 8.5 WNW 9 13 1027.9 - 0.0 - Cloudy 10 - - - -
24/04:00am 7.8 WNW 8 10 1027.9 - 0.0 - Cloudy 10 - - - -
24/03:30am 7.3 WNW 8 10 1027.8 - 0.0 - Cloudy 10 - - - -
24/03:00am 6.8 WNW 6 8 1027.9 - 0.0 - Partly cloudy 10 - - - -
24/02:30am 8.4 WNW 8 10 1027.9 - 0.0 - Cloudy 10 - - - -
24/02:00am 8.2 WNW 7 9 1028.0 - 0.0 - Cloudy 10 - - - -
24/01:30am 8.6 WNW 8 10 1027.6 - 0.0 - Cloudy 10 - - - -
24/01:00am 8.7 W 9 12 1027.6 - 0.0 - Cloudy 10 - - - -
24/12:30am 9.2 W 8 11 1027.8 - 0.0 - Partly cloudy 10 - - - -
24/12:00am 9.5 W 9 13 1027.8 - 0.0 - Mostly cloudy 10 - - - -
 
Date/Time
EST
Temp
°C
Wind Pressure Rain since
9am
mm
Weather Cloud Vis
km
Sea
Height
m
Swell
Dir  Spd
kts
Gust
kts
hPa Trend Height
m
Period
s
Dir
23/11:30pm 10.1 W 11 16 1027.8 - 0.0 - Cloudy 10 - - - -
23/11:00pm 9.9 W 11 16 1027.8 - 0.0 - Cloudy 10 - - - -
23/10:30pm 9.5 W 11 16 1027.4 - 0.0 - Partly cloudy 10 - - - -
23/10:00pm 9.4 W 9 12 1027.2 - 0.0 - Partly cloudy 10 - - - -
23/09:30pm 9.8 W 9 12 1027.2 - 0.0 - Cloudy 10 - - - -
23/09:00pm 9.8 W 9 12 1027.0 - 0.0 - Cloudy 10 - - - -
23/08:30pm 9.9 W 9 13 1027.0 - 0.0 - Partly cloudy 10 - - - -
23/08:00pm 10.2 W 9 12 1026.8 - 0.0 - Partly cloudy 10 - - - -
23/07:30pm 10.1 W 7 11 1026.6 - 0.0 - Partly cloudy 10 - - - -
23/07:00pm 10.1 WNW 9 12 1026.2 - 0.0 - Cloudy 10 - - - -
23/06:30pm 10.2 W 11 15 1025.9 - 0.0 - Partly cloudy 10 - - - -
23/06:00pm 10.2 W 11 15 1025.5 - 0.0 - Cloudy 10 - - - -
23/05:30pm 10.3 W 11 16 1025.2 - 0.0 - Partly cloudy 10 - - - -
23/05:00pm 10.9 W 12 16 1025.1 - 0.0 - Partly cloudy 10 - - - -
23/04:30pm 11.2 WSW 11 17 1024.8 - 0.0 - Partly cloudy 10 - - - -
23/04:00pm 11.9 WSW 12 16 1024.6 - 0.0 - Cloudy 10 - - - -
23/03:30pm 12.4 SW 11 15 1024.3 - 0.0 - Cloudy 10 - - - -
23/03:00pm 12.9 SW 8 10 1024.0 - 0.0 - Cloudy - - - - -
23/02:30pm 13.1 WSW 11 15 1023.8 - 0.0 - Cloudy - - - - -
23/02:00pm 13.4 WSW 11 14 1023.8 - 0.0 - Cloudy - - - - -
23/01:30pm 14.1 SW 12 17 1023.7 - 0.0 - Cloudy - - - - -
23/01:00pm 15.5 W 13 16 1023.7 - 0.0 - Partly cloudy - - - - -
23/12:30pm 15.3 W 13 18 1023.8 - 0.0 - - - - - - -
23/12:00pm 14.0 NW 11 15 1024.0 - 0.0 - - - - - - -
23/11:30am 14.1 NW 10 14 1024.5 - 0.0 - - - - - - -
23/11:00am 12.7 NW 11 15 1024.8 - 0.0 - - - - - - -
23/10:30am 12.0 NW 9 12 1025.0 - 0.0 - - - - - - -
23/10:00am 10.6 NW 9 13 1025.1 - 0.0 - - - - - - -
23/09:30am 8.9 NW 9 11 1025.1 - 0.0 - Partly cloudy 10 - - - -
23/09:00am 7.6 NW 7 9 1025.0 - 0.2 - - 10 - - - -
23/08:30am 6.1 NW 9 11 1024.9 - 0.2 - - 10 - - - -
23/08:00am 4.5 NW 9 10 1024.9 - 0.2 - - 10 - - - -
23/07:30am 3.3 NW 8 9 1024.8 - 0.2 - - 10 - - - -
23/07:00am 3.2 NW 7 9 1024.6 - 0.2 - - 10 - - - -
23/06:30am 3.2 NW 7 8 1024.5 - 0.2 - - 10 - - - -
23/06:00am 3.8 NW 7 9 1024.4 - 0.2 - - 10 - - - -

Other Formats:

Comma delimited format used in spreadsheet applications
http://www.bom.gov.au/fwo/IDV60701/IDV60701.94912.axf

JavaScript Object Notation format (JSON) in row-major order
http://www.bom.gov.au/fwo/IDV60701/IDV60701.94912.json